| time (UTC) | temp C | wind direction | speed KPH | gust KPH | rain 1hr cm | rain 24hr cm | rain mn cm | humidity % | barometer mb |
| 20260906095350 | 21 | 350 | 4.8 | 6.4 | 0.00 | 0.91 | 0.00 | 87 | 1012.2 |
| 20260906094850 | 21 | 350 | 3.2 | 4.8 | 0.00 | 0.91 | 0.00 | 87 | 1012.2 |
| 20260906094350 | 21 | 350 | 3.2 | 6.4 | 0.00 | 0.91 | 0.00 | 87 | 1012.2 |
| 20260906093847 | 21 | 350 | 0.0 | 6.4 | 0.00 | 0.91 | 0.00 | 87 | 1012.2 |
| 20260906093350 | 21 | 350 | 1.6 | 6.4 | 0.00 | 0.91 | 0.00 | 87 | 1012.1 |
| 20260906092850 | 21 | 350 | 4.8 | 8.0 | 0.00 | 0.91 | 0.00 | 87 | 1012.3 |
| 20260906092347 | 21 | 350 | 4.8 | 8.0 | 0.00 | 0.91 | 0.00 | 87 | 1012.3 |
| 20260906091850 | 21 | 350 | 3.2 | 8.0 | 0.00 | 0.91 | 0.00 | 87 | 1012.1 |
| 20260906091350 | 21 | 350 | 3.2 | 8.0 | 0.00 | 0.91 | 0.00 | 87 | 1012.0 |
| 20260906090850 | 21 | 350 | 6.4 | 6.4 | 0.00 | 0.91 | 0.00 | 87 | 1012.0 |
| 20260906090347 | 21 | 350 | 3.2 | 4.8 | 0.00 | 0.91 | 0.00 | 87 | 1011.9 |
| 20260906085847 | 21 | 350 | 0.0 | 4.8 | 0.00 | 0.91 | 0.00 | 87 | 1012.0 |
| 20260906085347 | 21 | 350 | 1.6 | 4.8 | 0.00 | 0.91 | 0.00 | 87 | 1011.9 |
| 20260906084847 | 21 | 350 | 1.6 | 4.8 | 0.00 | 0.91 | 0.00 | 87 | 1011.8 |
| 20260906084347 | 21 | 350 | 3.2 | 6.4 | 0.00 | 0.91 | 0.00 | 87 | 1011.8 |
| 20260906083850 | 21 | 350 | 4.8 | 8.0 | 0.00 | 0.91 | 0.00 | 87 | 1011.8 |
| 20260906083347 | 21 | 349 | 3.2 | 6.4 | 0.00 | 0.91 | 0.00 | 87 | 1011.9 |
| 20260906082847 | 21 | 349 | 4.8 | 6.4 | 0.00 | 0.91 | 0.00 | 87 | 1012.0 |
| 20260906082350 | 21 | 349 | 3.2 | 4.8 | 0.00 | 0.91 | 0.00 | 87 | 1011.9 |
| 20260906081847 | 21 | 349 | 3.2 | 8.0 | 0.00 | 0.91 | 0.00 | 87 | 1011.8 |
| 20260906081347 | 21 | 349 | 1.6 | 6.4 | 0.00 | 0.91 | 0.00 | 87 | 1011.6 |
| 20260906080850 | 21 | 349 | 3.2 | 6.4 | 0.00 | 0.91 | 0.00 | 87 | 1011.6 |
| 20260906080350 | 21 | 349 | 4.8 | 8.0 | 0.00 | 0.91 | 0.00 | 87 | 1011.6 |
| 20260906075850 | 21 | 348 | 4.8 | 8.0 | 0.00 | 0.91 | 0.00 | 87 | 1011.5 |
| 20260906075347 | 21 | 344 | 0.0 | 4.8 | 0.00 | 0.91 | 0.00 | 87 | 1011.3 |
| 20260906074847 | 21 | 344 | 1.6 | 6.4 | 0.00 | 0.91 | 0.00 | 87 | 1011.3 |
| 20260906074347 | 21 | 344 | 3.2 | 9.7 | 0.00 | 0.91 | 0.00 | 87 | 1011.3 |
| 20260906073850 | 21 | 346 | 4.8 | 9.7 | 0.00 | 0.91 | 0.00 | 87 | 1011.3 |
| 20260906073350 | 21 | 346 | 4.8 | 8.0 | 0.00 | 0.91 | 0.00 | 87 | 1011.4 |
| 20260906072847 | 21 | 345 | 8.0 | 12.9 | 0.00 | 0.91 | 0.00 | 87 | 1011.4 |
| 20260906072350 | 21 | 350 | 8.0 | 14.5 | 0.00 | 0.91 | 0.00 | 87 | 1011.5 |
| 20260906071847 | 21 | 324 | 6.4 | 9.7 | 0.00 | 0.91 | 0.00 | 87 | 1011.6 |
| 20260906071350 | 21 | 322 | 3.2 | 4.8 | 0.00 | 0.91 | 0.00 | 87 | 1011.7 |
| 20260906070847 | 21 | 322 | 1.6 | 6.4 | 0.00 | 0.91 | 0.00 | 87 | 1011.7 |
| 20260906065848 | 21 | 322 | 4.8 | 4.8 | 0.00 | 0.91 | 0.00 | 87 | 1011.8 |
| 20260906065348 | 21 | 322 | 3.2 | 6.4 | 0.00 | 0.91 | 0.00 | 87 | 1011.8 |
| 20260906064851 | 21 | 322 | 4.8 | 6.4 | 0.00 | 0.91 | 0.00 | 87 | 1011.9 |
| 20260906064351 | 21 | 322 | 0.0 | 0.0 | 0.00 | 0.91 | 0.00 | 87 | 1011.9 |
| 20260906063851 | 21 | 322 | 0.0 | 0.0 | 0.00 | 0.91 | 0.00 | 87 | 1012.0 |
| 20260906063348 | 21 | 322 | 0.0 | 0.0 | 0.00 | 0.91 | 0.00 | 87 | 1012.1 |
| 20260906062848 | 21 | 322 | 0.0 | 0.0 | 0.00 | 0.91 | 0.00 | 87 | 1012.2 |
| 20260906062348 | 21 | 322 | 0.0 | 1.6 | 0.00 | 0.91 | 0.00 | 87 | 1012.2 |
| 20260906061851 | 21 | 322 | 1.6 | 4.8 | 0.00 | 0.91 | 0.00 | 87 | 1012.3 |
| 20260906061348 | 21 | 322 | 0.0 | 3.2 | 0.00 | 0.91 | 0.00 | 87 | 1012.3 |
| 20260906060848 | 21 | 322 | 0.0 | 3.2 | 0.00 | 0.91 | 0.00 | 87 | 1012.2 |
| 20260906060348 | 21 | 322 | 0.0 | 3.2 | 0.00 | 0.91 | 0.00 | 87 | 1012.2 |
| 20260906055851 | 21 | 322 | 3.2 | 4.8 | 0.00 | 0.91 | 0.00 | 87 | 1012.3 |
| 20260906055351 | 21 | 322 | 3.2 | 4.8 | 0.00 | 0.91 | 0.00 | 87 | 1012.3 |
| 20260906054848 | 21 | 322 | 4.8 | 4.8 | 0.00 | 0.91 | 0.00 | 87 | 1012.3 |
| 20260906054351 | 21 | 322 | 1.6 | 3.2 | 0.00 | 0.91 | 0.00 | 87 | 1012.3 |
| 20260906053851 | 21 | 322 | 1.6 | 3.2 | 0.00 | 0.91 | 0.00 | 87 | 1012.2 |
| 20260906053351 | 21 | 322 | 1.6 | 1.6 | 0.00 | 0.91 | 0.00 | 87 | 1012.2 |
| 20260906052848 | 21 | 322 | 0.0 | 1.6 | 0.00 | 0.91 | 0.00 | 87 | 1012.2 |
| 20260906052351 | 21 | 322 | 0.0 | 1.6 | 0.00 | 0.91 | 0.00 | 87 | 1012.1 |
| 20260906051851 | 22 | 322 | 1.6 | 1.6 | 0.00 | 0.91 | 0.00 | 87 | 1012.2 |
| 20260906051351 | 22 | 322 | 0.0 | 3.2 | 0.00 | 0.91 | 0.00 | 87 | 1012.3 |
| 20260906050851 | 21 | 322 | 3.2 | 4.8 | 0.00 | 0.91 | 0.00 | 87 | 1012.2 |
| 20260906050351 | 22 | 322 | 0.0 | 3.2 | 0.00 | 0.91 | 0.00 | 87 | 1012.2 |
| 20260906045851 | 22 | 322 | 1.6 | 1.6 | 0.00 | 0.91 | 0.00 | 87 | 1012.3 |
| 20260906045348 | 22 | 322 | 0.0 | 1.6 | 0.00 | 0.91 | 0.00 | 87 | 1012.4 |
| 20260906044848 | 22 | 322 | 0.0 | 1.6 | 0.00 | 0.91 | 0.00 | 87 | 1012.4 |
| 20260906044348 | 22 | 322 | 0.0 | 3.2 | 0.00 | 0.91 | 0.00 | 87 | 1012.5 |
| 20260906043848 | 22 | 322 | 0.0 | 1.6 | 0.00 | 0.91 | 0.00 | 87 | 1012.6 |
| 20260906043351 | 22 | 322 | 0.0 | 0.0 | 0.00 | 0.91 | 0.00 | 87 | 1012.6 |
| 20260906042848 | 22 | 322 | 0.0 | 0.0 | 0.00 | 0.91 | 0.00 | 87 | 1012.7 |
| 20260906042348 | 22 | 322 | 0.0 | 0.0 | 0.00 | 0.91 | 0.00 | 87 | 1012.8 |
| 20260906041848 | 22 | 322 | 0.0 | 0.0 | 0.00 | 0.91 | 0.00 | 87 | 1012.9 |
| 20260906041348 | 22 | 322 | 0.0 | 3.2 | 0.00 | 0.91 | 0.00 | 87 | 1012.9 |
| 20260906040851 | 22 | 322 | 3.2 | 3.2 | 0.00 | 0.91 | 0.00 | 87 | 1012.9 |
| 20260906040351 | 22 | 322 | 1.6 | 3.2 | 0.00 | 0.91 | 0.00 | 87 | 1013.0 |
| 20260906035848 | 22 | 322 | 0.0 | 3.2 | 0.00 | 0.91 | 0.00 | 87 | 1012.9 |
| 20260906035348 | 22 | 322 | 1.6 | 4.8 | 0.00 | 0.91 | 0.00 | 87 | 1012.8 |
| 20260906034848 | 22 | 322 | 3.2 | 6.4 | 0.00 | 0.91 | 0.00 | 87 | 1012.7 |
| 20260906034348 | 22 | 322 | 4.8 | 4.8 | 0.00 | 0.91 | 0.00 | 87 | 1012.7 |
| 20260906033848 | 22 | 322 | 0.0 | 0.0 | 0.00 | 0.91 | 0.00 | 87 | 1012.8 |
| 20260906033351 | 22 | 322 | 0.0 | 0.0 | 0.00 | 0.91 | 0.00 | 87 | 1012.8 |
| 20260906032851 | 22 | 322 | 0.0 | 0.0 | 0.00 | 0.91 | 0.00 | 87 | 1012.9 |
| 20260906032351 | 22 | 322 | 0.0 | 0.0 | 0.00 | 0.91 | 0.00 | 87 | 1012.8 |
| 20260906031848 | 22 | 322 | 0.0 | 0.0 | 0.00 | 0.91 | 0.00 | 87 | 1012.8 |
| 20260906031351 | 22 | 322 | 0.0 | 0.0 | 0.00 | 0.91 | 0.00 | 87 | 1012.8 |
| 20260906030848 | 22 | 322 | 0.0 | 0.0 | 0.00 | 0.91 | 0.00 | 87 | 1012.7 |
| 20260906030351 | 22 | 322 | 0.0 | 0.0 | 0.00 | 0.91 | 0.00 | 87 | 1012.7 |
| 20260906025851 | 22 | 322 | 0.0 | 0.0 | 0.00 | 0.91 | 0.00 | 87 | 1012.7 |
| 20260906025348 | 22 | 322 | 0.0 | 0.0 | 0.00 | 0.91 | 0.00 | 87 | 1012.8 |
| 20260906024848 | 22 | 322 | 0.0 | 0.0 | 0.00 | 0.91 | 0.00 | 87 | 1012.8 |
| 20260906024348 | 22 | 322 | 0.0 | 0.0 | 0.00 | 0.91 | 0.00 | 87 | 1012.7 |
| 20260906023848 | 22 | 322 | 0.0 | 0.0 | 0.00 | 0.91 | 0.00 | 87 | 1012.7 |
| 20260906023348 | 22 | 322 | 0.0 | 0.0 | 0.00 | 0.91 | 0.00 | 87 | 1012.6 |
| 20260906022848 | 22 | 322 | 0.0 | 3.2 | 0.00 | 0.91 | 0.00 | 87 | 1012.6 |
| 20260906022351 | 22 | 322 | 0.0 | 0.0 | 0.00 | 0.91 | 0.00 | 87 | 1012.6 |
| 20260906021851 | 22 | 322 | 0.0 | 0.0 | 0.00 | 0.91 | 0.00 | 87 | 1012.6 |
| 20260906021351 | 22 | 322 | 0.0 | 0.0 | 0.00 | 0.91 | 0.00 | 87 | 1012.5 |
| 20260906020851 | 22 | 322 | 0.0 | 0.0 | 0.00 | 0.91 | 0.00 | 87 | 1012.6 |
| 20260906020348 | 22 | 322 | 0.0 | 0.0 | 0.00 | 0.91 | 0.00 | 87 | 1012.6 |
| 20260906015848 | 22 | 322 | 0.0 | 0.0 | 0.00 | 0.91 | 0.00 | 87 | 1012.7 |
| 20260906015351 | 22 | 322 | 0.0 | 0.0 | 0.00 | 0.91 | 0.00 | 87 | 1012.7 |
| 20260906014848 | 22 | 322 | 0.0 | 0.0 | 0.00 | 0.91 | 0.00 | 87 | 1012.7 |
| 20260906014348 | 22 | 322 | 0.0 | 0.0 | 0.00 | 0.91 | 0.00 | 87 | 1012.5 |
| 20260906013851 | 22 | 322 | 0.0 | 0.0 | 0.00 | 0.91 | 0.00 | 87 | 1012.4 |
| 20260906013348 | 22 | 322 | 0.0 | 0.0 | 0.00 | 0.91 | 0.00 | 87 | 1012.4 |
| 20260906012851 | 22 | 322 | 0.0 | 0.0 | 0.00 | 0.91 | 0.00 | 87 | 1012.3 |
| 20260906012348 | 22 | 322 | 0.0 | 0.0 | 0.00 | 0.91 | 0.00 | 87 | 1012.3 |
| 20260906011851 | 23 | 322 | 0.0 | 0.0 | 0.00 | 0.91 | 0.00 | 87 | 1012.3 |
| 20260906011348 | 23 | 322 | 0.0 | 0.0 | 0.00 | 0.91 | 0.00 | 87 | 1012.2 |
| 20260906010851 | 23 | 322 | 0.0 | 0.0 | 0.00 | 0.91 | 0.00 | 87 | 1012.1 |
| 20260906010348 | 23 | 322 | 0.0 | 0.0 | 0.00 | 0.91 | 0.00 | 87 | 1012.2 |
| 20260906005851 | 23 | 322 | 0.0 | 0.0 | 0.00 | 0.91 | 0.00 | 87 | 1012.2 |
| 20260906005351 | 23 | 322 | 0.0 | 0.0 | 0.00 | 0.91 | 0.00 | 87 | 1012.1 |
| 20260906004848 | 23 | 322 | 0.0 | 0.0 | 0.00 | 0.91 | 0.00 | 87 | 1012.1 |
| 20260906004348 | 23 | 322 | 0.0 | 0.0 | 0.00 | 0.91 | 0.00 | 87 | 1012.1 |
| 20260906003851 | 23 | 322 | 0.0 | 0.0 | 0.00 | 0.91 | 0.00 | 87 | 1012.0 |
| 20260906003348 | 23 | 322 | 0.0 | 0.0 | 0.00 | 0.91 | 0.00 | 87 | 1011.9 |
| 20260906002851 | 23 | 322 | 0.0 | 0.0 | 0.00 | 0.91 | 0.00 | 87 | 1011.8 |
| 20260906002348 | 23 | 322 | 0.0 | 0.0 | 0.00 | 0.91 | 0.00 | 87 | 1011.7 |
| 20260906001851 | 23 | 322 | 0.0 | 0.0 | 0.00 | 0.91 | 0.00 | 87 | 1011.7 |
| 20260906001348 | 23 | 322 | 0.0 | 0.0 | 0.00 | 0.91 | 0.00 | 87 | 1011.7 |
| 20260906000851 | 23 | 322 | 0.0 | 0.0 | 0.00 | 0.91 | 0.00 | 87 | 1011.7 |
| 20260906000351 | 24 | 322 | 0.0 | 0.0 | 0.00 | 0.91 | 0.00 | 87 | 1011.7 |
| 20260905235848 | 24 | 322 | 0.0 | 0.0 | 0.00 | 0.91 | 0.00 | 86 | 1011.6 |
| 20260905235351 | 24 | 322 | 0.0 | 0.0 | 0.00 | 0.91 | 0.00 | 86 | 1011.6 |
| 20260905234848 | 25 | 322 | 0.0 | 0.0 | 0.00 | 0.91 | 0.00 | 85 | 1011.6 |
| 20260905234348 | 25 | 322 | 0.0 | 0.0 | 0.00 | 0.91 | 0.00 | 85 | 1011.5 |
| 20260905233851 | 25 | 322 | 0.0 | 0.0 | 0.00 | 0.91 | 0.00 | 84 | 1011.6 |
| 20260905233351 | 25 | 322 | 0.0 | 0.0 | 0.00 | 0.91 | 0.00 | 84 | 1011.5 |
| 20260905232848 | 26 | 322 | 0.0 | 0.0 | 0.00 | 0.91 | 0.00 | 83 | 1011.5 |
| 20260905232351 | 26 | 322 | 0.0 | 3.2 | 0.00 | 0.91 | 0.00 | 83 | 1011.6 |
| 20260905231848 | 26 | 322 | 3.2 | 3.2 | 0.00 | 0.91 | 0.00 | 82 | 1011.5 |
| 20260905231348 | 26 | 319 | 3.2 | 4.8 | 0.00 | 0.91 | 0.00 | 81 | 1011.5 |
| 20260905230851 | 26 | 319 | 3.2 | 4.8 | 0.00 | 0.91 | 0.00 | 80 | 1011.5 |
| 20260905230348 | 27 | 319 | 3.2 | 4.8 | 0.00 | 0.91 | 0.00 | 79 | 1011.4 |
| 20260905225851 | 27 | 319 | 1.6 | 4.8 | 0.00 | 0.91 | 0.00 | 78 | 1011.4 |
| 20260905225351 | 27 | 319 | 3.2 | 3.2 | 0.00 | 0.91 | 0.00 | 77 | 1011.5 |
| 20260905224848 | 27 | 319 | 1.6 | 4.8 | 0.00 | 0.91 | 0.00 | 77 | 1011.5 |
| 20260905224348 | 27 | 319 | 3.2 | 8.0 | 0.00 | 0.91 | 0.00 | 75 | 1011.5 |
| 20260905223848 | 27 | 0 | 4.8 | 6.4 | 0.00 | 0.91 | 0.00 | 78 | 1011.5 |
| 20260905223351 | 27 | 0 | 3.2 | 8.0 | 0.00 | 0.91 | 0.00 | 77 | 1011.3 |
| 20260905222848 | 27 | 0 | 1.6 | 8.0 | 0.00 | 0.91 | 0.00 | 77 | 1011.4 |
| 20260905222348 | 27 | 238 | 0.0 | 0.0 | 0.00 | 0.91 | 0.00 | 77 | 1011.4 |
| 20260905221848 | 27 | 238 | 0.0 | 3.2 | 0.00 | 0.91 | 0.00 | 80 | 1011.2 |
| 20260905221351 | 27 | 238 | 1.6 | 6.4 | 0.00 | 0.91 | 0.00 | 79 | 1011.2 |
| 20260905220848 | 27 | 238 | 4.8 | 8.0 | 0.00 | 0.91 | 0.00 | 79 | 1011.2 |
| 20260905220348 | 27 | 238 | 3.2 | 6.4 | 0.00 | 0.91 | 0.00 | 79 | 1011.4 |
| 20260905215851 | 27 | 238 | 4.8 | 8.0 | 0.00 | 0.91 | 0.00 | 80 | 1011.6 |
| 20260905215348 | 27 | 240 | 8.0 | 8.0 | 0.00 | 0.91 | 0.00 | 81 | 1011.7 |
| 20260905214848 | 26 | 239 | 4.8 | 6.4 | 0.00 | 0.91 | 0.00 | 81 | 1011.8 |
| 20260905214351 | 26 | 239 | 3.2 | 3.2 | 0.00 | 0.91 | 0.00 | 81 | 1011.9 |
| 20260905213851 | 26 | 239 | 3.2 | 3.2 | 0.00 | 0.91 | 0.00 | 82 | 1011.8 |
| 20260905213348 | 26 | 239 | 3.2 | 4.8 | 0.00 | 0.91 | 0.00 | 82 | 1011.9 |
| 20260905212848 | 26 | 239 | 1.6 | 4.8 | 0.00 | 0.91 | 0.00 | 82 | 1011.9 |
| 20260905212348 | 25 | 239 | 3.2 | 4.8 | 0.00 | 0.91 | 0.00 | 82 | 1011.9 |
| 20260905211851 | 25 | 239 | 1.6 | 4.8 | 0.00 | 0.91 | 0.00 | 82 | 1011.9 |
| 20260905211351 | 25 | 239 | 0.0 | 4.8 | 0.00 | 0.91 | 0.00 | 83 | 1012.0 |
| 20260905210848 | 25 | 240 | 0.0 | 4.8 | 0.00 | 0.91 | 0.00 | 82 | 1012.0 |
| 20260905210351 | 25 | 240 | 3.2 | 6.4 | 0.00 | 0.91 | 0.00 | 84 | 1011.9 |
| 20260905205851 | 25 | 240 | 1.6 | 4.8 | 0.00 | 0.91 | 0.00 | 84 | 1011.9 |
| 20260905205351 | 25 | 240 | 0.0 | 3.2 | 0.00 | 0.91 | 0.00 | 84 | 1011.8 |
| 20260905204851 | 25 | 240 | 1.6 | 4.8 | 0.00 | 0.91 | 0.00 | 84 | 1011.9 |
| 20260905204351 | 25 | 240 | 0.0 | 6.4 | 0.00 | 0.91 | 0.00 | 83 | 1011.9 |
| 20260905203851 | 25 | 241 | 0.0 | 4.8 | 0.00 | 0.91 | 0.00 | 84 | 1011.8 |
| 20260905203348 | 25 | 243 | 3.2 | 8.0 | 0.00 | 0.91 | 0.00 | 85 | 1011.7 |
| 20260905202851 | 25 | 210 | 3.2 | 6.4 | 0.00 | 0.91 | 0.00 | 86 | 1011.8 |
| 20260905202348 | 24 | 217 | 1.6 | 9.7 | 0.00 | 0.91 | 0.00 | 87 | 1011.8 |
| 20260905201851 | 24 | 219 | 8.0 | 11.3 | 0.00 | 0.91 | 0.00 | 87 | 1011.9 |
| 20260905201351 | 23 | 262 | 11.3 | 12.9 | 0.00 | 0.91 | 0.00 | 87 | 1012.0 |
| 20260905200848 | 23 | 156 | 1.6 | 9.7 | 0.00 | 0.91 | 0.00 | 87 | 1011.8 |
| 20260905200348 | 23 | 140 | 3.2 | 8.0 | 0.00 | 0.91 | 0.00 | 87 | 1011.8 |
| 20260905195848 | 23 | 72 | 1.6 | 4.8 | 0.00 | 0.91 | 0.00 | 87 | 1011.8 |
| 20260905195351 | 23 | 72 | 0.0 | 4.8 | 0.00 | 0.91 | 0.00 | 87 | 1012.1 |
| 20260905194851 | 22 | 71 | 3.2 | 3.2 | 0.00 | 0.91 | 0.00 | 87 | 1012.5 |
| 20260905194351 | 22 | 71 | 0.0 | 1.6 | 0.00 | 0.91 | 0.00 | 87 | 1012.6 |
| 20260905193851 | 22 | 71 | 0.0 | 11.3 | 0.00 | 0.91 | 0.00 | 87 | 1012.8 |
| 20260905193351 | 22 | 96 | 9.7 | 11.3 | 0.00 | 0.91 | 0.00 | 87 | 1012.7 |
| 20260905192848 | 22 | 263 | 1.6 | 3.2 | 0.05 | 0.91 | 0.00 | 87 | 1012.8 |
| 20260905192348 | 22 | 263 | 0.0 | 9.7 | 0.10 | 0.91 | 0.00 | 87 | 1012.7 |
| 20260905191851 | 22 | 151 | 1.6 | 8.0 | 0.23 | 0.91 | 0.00 | 87 | 1011.9 |
| 20260905191348 | 21 | 151 | 1.6 | 4.8 | 0.51 | 0.91 | 0.00 | 87 | 1011.8 |
| 20260905190851 | 21 | 151 | 3.2 | 3.2 | 0.91 | 0.91 | 0.00 | 87 | 1011.5 |
| 20260905190348 | 21 | 151 | 0.0 | 3.2 | 0.91 | 0.91 | 0.00 | 87 | 1011.0 |
| 20260905185851 | 21 | 151 | 0.0 | 6.4 | 0.91 | 0.91 | 0.00 | 87 | 1010.7 |
| 20260905185348 | 21 | 152 | 3.2 | 8.0 | 0.91 | 0.91 | 0.00 | 87 | 1010.5 |
| 20260905184848 | 21 | 159 | 3.2 | 8.0 | 0.91 | 0.91 | 0.00 | 87 | 1010.8 |
| 20260905184351 | 21 | 160 | 3.2 | 9.7 | 0.91 | 0.91 | 0.00 | 87 | 1011.3 |
| 20260905183851 | 21 | 170 | 1.6 | 16.1 | 0.91 | 0.91 | 0.00 | 86 | 1011.5 |
| 20260905183348 | 22 | 157 | 9.7 | 12.9 | 0.91 | 0.91 | 0.00 | 85 | 1011.6 |
| 20260905182848 | 22 | 178 | 4.8 | 12.9 | 0.86 | 0.86 | 0.00 | 83 | 1012.0 |
| 20260905182351 | 22 | 224 | 8.0 | 22.5 | 0.79 | 0.79 | 0.00 | 81 | 1012.8 |
| 20260905181851 | 23 | 245 | 25.7 | 27.4 | 0.66 | 0.66 | 0.00 | 78 | 1013.7 |
| 20260905181348 | 25 | 321 | 22.5 | 56.3 | 0.41 | 0.41 | 0.00 | 73 | 1014.0 |
| 20260905180848 | 27 | 306 | 43.5 | 66.0 | 0.00 | 0.00 | 0.00 | 63 | 1013.0 |
| 20260905180351 | 30 | 272 | 41.8 | 59.5 | 0.00 | 0.00 | 0.00 | 54 | 1012.7 |
| 20260905175848 | 33 | 315 | 35.4 | 57.9 | 0.00 | 0.00 | 0.00 | 56 | 1012.6 |
| 20260905175351 | 34 | 333 | 12.9 | 19.3 | 0.00 | 0.00 | 0.00 | 54 | 1011.8 |
| 20260905174851 | 35 | 301 | 14.5 | 19.3 | 0.00 | 0.00 | 0.00 | 52 | 1011.8 |
| 20260905174351 | 35 | 281 | 12.9 | 17.7 | 0.00 | 0.00 | 0.00 | 53 | 1011.8 |
| 20260905173848 | 35 | 0 | 14.5 | 20.9 | 0.00 | 0.00 | 0.00 | 52 | 1011.6 |
| 20260905173348 | 35 | 273 | 14.5 | 22.5 | 0.00 | 0.00 | 0.00 | 52 | 1011.9 |
| 20260905172851 | 35 | 254 | 6.4 | 11.3 | 0.00 | 0.00 | 0.00 | 56 | 1012.0 |
| 20260905172348 | 35 | 291 | 12.9 | 12.9 | 0.00 | 0.00 | 0.00 | 57 | 1012.2 |
| 20260905171851 | 35 | 348 | 6.4 | 12.9 | 0.00 | 0.00 | 0.00 | 56 | 1012.3 |
| 20260905171351 | 35 | 331 | 8.0 | 17.7 | 0.00 | 0.00 | 0.00 | 57 | 1012.4 |
| 20260905170848 | 35 | 340 | 4.8 | 17.7 | 0.00 | 0.00 | 0.00 | 57 | 1012.6 |
| 20260905170351 | 35 | 347 | 8.0 | 14.5 | 0.00 | 0.00 | 0.00 | 59 | 1012.6 |
| 20260905165848 | 34 | 325 | 1.6 | 8.0 | 0.00 | 0.00 | 0.00 | 59 | 1012.7 |
| 20260905165351 | 34 | 284 | 4.8 | 14.5 | 0.00 | 0.00 | 0.00 | 59 | 1012.8 |
| 20260905164848 | 34 | 201 | 0.0 | 19.3 | 0.00 | 0.00 | 0.00 | 60 | 1012.7 |
| 20260905164348 | 34 | 268 | 11.3 | 19.3 | 0.00 | 0.00 | 0.00 | 60 | 1012.8 |
| 20260905163851 | 34 | 263 | 3.2 | 16.1 | 0.00 | 0.00 | 0.00 | 58 | 1012.8 |
| 20260905163348 | 34 | 285 | 9.7 | 14.5 | 0.00 | 0.00 | 0.00 | 58 | 1012.9 |
| 20260905162848 | 34 | 240 | 3.2 | 17.7 | 0.00 | 0.00 | 0.00 | 57 | 1013.0 |
| 20260905162351 | 34 | 311 | 6.4 | 12.9 | 0.00 | 0.00 | 0.00 | 59 | 1013.1 |
| 20260905161851 | 33 | 331 | 3.2 | 14.5 | 0.00 | 0.00 | 0.00 | 58 | 1013.1 |
| 20260905161351 | 33 | 262 | 12.9 | 12.9 | 0.00 | 0.00 | 0.00 | 62 | 1013.2 |
| 20260905160848 | 33 | 261 | 3.2 | 11.3 | 0.00 | 0.00 | 0.00 | 61 | 1013.2 |
| 20260905160351 | 33 | 249 | 4.8 | 11.3 | 0.00 | 0.00 | 0.00 | 63 | 1013.1 |
| 20260905155848 | 33 | 263 | 9.7 | 16.1 | 0.00 | 0.00 | 0.00 | 63 | 1013.1 |
| 20260905155348 | 32 | 256 | 1.6 | 14.5 | 0.00 | 0.00 | 0.00 | 63 | 1013.2 |
| 20260905154851 | 33 | 238 | 3.2 | 9.7 | 0.00 | 0.00 | 0.00 | 64 | 1013.2 |
| 20260905154348 | 32 | 177 | 4.8 | 9.7 | 0.00 | 0.00 | 0.00 | 66 | 1013.3 |
| 20260905153848 | 32 | 257 | 3.2 | 12.9 | 0.00 | 0.00 | 0.00 | 65 | 1013.4 |
| 20260905153348 | 32 | 279 | 4.8 | 12.9 | 0.00 | 0.00 | 0.00 | 64 | 1013.3 |
| 20260905152848 | 32 | 219 | 3.2 | 9.7 | 0.00 | 0.00 | 0.00 | 68 | 1013.3 |
| 20260905152348 | 31 | 252 | 6.4 | 8.0 | 0.00 | 0.00 | 0.00 | 67 | 1013.3 |
| 20260905151851 | 32 | 254 | 8.0 | 12.9 | 0.00 | 0.00 | 0.00 | 67 | 1013.3 |
| 20260905151348 | 31 | 253 | 4.8 | 8.0 | 0.00 | 0.00 | 0.00 | 67 | 1013.3 |
| 20260905150851 | 31 | 247 | 4.8 | 11.3 | 0.00 | 0.00 | 0.00 | 68 | 1013.4 |
| 20260905150351 | 31 | 226 | 3.2 | 9.7 | 0.00 | 0.00 | 0.00 | 70 | 1013.5 |
| 20260905145848 | 31 | 223 | 6.4 | 8.0 | 0.00 | 0.00 | 0.00 | 69 | 1013.5 |
| 20260905145351 | 31 | 209 | 4.8 | 11.3 | 0.00 | 0.00 | 0.00 | 71 | 1013.5 |
| 20260905144851 | 31 | 205 | 4.8 | 9.7 | 0.00 | 0.00 | 0.00 | 72 | 1013.6 |
| 20260905144351 | 30 | 202 | 1.6 | 9.7 | 0.00 | 0.00 | 0.00 | 74 | 1013.6 |
| 20260905143848 | 30 | 254 | 3.2 | 9.7 | 0.00 | 0.00 | 0.00 | 72 | 1013.6 |
| 20260905143348 | 30 | 222 | 3.2 | 9.7 | 0.00 | 0.00 | 0.00 | 74 | 1013.5 |
| 20260905142851 | 29 | 203 | 4.8 | 9.7 | 0.00 | 0.00 | 0.00 | 75 | 1013.5 |
| 20260905142348 | 29 | 260 | 6.4 | 14.5 | 0.00 | 0.00 | 0.00 | 74 | 1013.6 |
| 20260905141848 | 28 | 271 | 3.2 | 11.3 | 0.00 | 0.00 | 0.00 | 76 | 1013.5 |
| 20260905141351 | 28 | 245 | 6.4 | 8.0 | 0.00 | 0.00 | 0.00 | 76 | 1013.4 |
| 20260905140848 | 28 | 207 | 6.4 | 11.3 | 0.00 | 0.00 | 0.00 | 77 | 1013.4 |
| 20260905140348 | 28 | 222 | 3.2 | 11.3 | 0.00 | 0.00 | 0.00 | 78 | 1013.4 |
| 20260905135848 | 28 | 181 | 4.8 | 6.4 | 0.00 | 0.00 | 0.00 | 79 | 1013.5 |
| 20260905135348 | 28 | 178 | 3.2 | 6.4 | 0.00 | 0.00 | 0.00 | 80 | 1013.5 |
| 20260905134848 | 28 | 178 | 4.8 | 11.3 | 0.00 | 0.00 | 0.00 | 79 | 1013.5 |
| 20260905134351 | 27 | 167 | 6.4 | 11.3 | 0.00 | 0.00 | 0.00 | 82 | 1013.5 |
| 20260905133848 | 27 | 164 | 1.6 | 9.7 | 0.00 | 0.00 | 0.00 | 82 | 1013.5 |
| 20260905133351 | 27 | 155 | 4.8 | 4.8 | 0.00 | 0.00 | 0.00 | 84 | 1013.5 |
| 20260905132851 | 26 | 155 | 1.6 | 3.2 | 0.00 | 0.00 | 0.00 | 84 | 1013.6 |
| 20260905132348 | 26 | 155 | 1.6 | 4.8 | 0.00 | 0.00 | 0.00 | 85 | 1013.6 |
| 20260905131848 | 26 | 155 | 3.2 | 6.4 | 0.00 | 0.00 | 0.00 | 85 | 1013.6 |
| 20260905131348 | 25 | 123 | 0.0 | 6.4 | 0.00 | 0.00 | 0.00 | 86 | 1013.7 |
| 20260905130848 | 25 | 119 | 0.0 | 3.2 | 0.00 | 0.00 | 0.00 | 86 | 1013.7 |
| 20260905130348 | 25 | 119 | 1.6 | 6.4 | 0.00 | 0.00 | 0.00 | 87 | 1013.7 |
| 20260905125851 | 25 | 116 | 4.8 | 4.8 | 0.00 | 0.00 | 0.00 | 87 | 1013.8 |
| 20260905125348 | 25 | 115 | 1.6 | 4.8 | 0.00 | 0.00 | 0.00 | 87 | 1013.8 |
| 20260905124848 | 24 | 113 | 3.2 | 4.8 | 0.00 | 0.00 | 0.00 | 87 | 1013.9 |
| 20260905124351 | 24 | 113 | 1.6 | 4.8 | 0.00 | 0.00 | 0.00 | 87 | 1013.8 |
| 20260905123851 | 24 | 112 | 3.2 | 4.8 | 0.00 | 0.00 | 0.00 | 87 | 1013.9 |
| 20260905123348 | 23 | 111 | 3.2 | 6.4 | 0.00 | 0.00 | 0.00 | 87 | 1013.9 |
| 20260905122851 | 23 | 121 | 4.8 | 4.8 | 0.00 | 0.00 | 0.00 | 87 | 1013.9 |
| 20260905122351 | 23 | 173 | 3.2 | 4.8 | 0.00 | 0.00 | 0.00 | 87 | 1013.9 |
| 20260905121848 | 22 | 173 | 0.0 | 0.0 | 0.00 | 0.00 | 0.00 | 87 | 1013.8 |
| 20260905121348 | 22 | 173 | 0.0 | 4.8 | 0.00 | 0.00 | 0.00 | 87 | 1013.8 |
| 20260905120848 | 22 | 173 | 3.2 | 8.0 | 0.00 | 0.00 | 0.00 | 87 | 1013.9 |
| 20260905120351 | 22 | 173 | 3.2 | 4.8 | 0.00 | 0.00 | 0.00 | 86 | 1013.7 |
| 20260905115851 | 22 | 173 | 1.6 | 4.8 | 0.00 | 0.00 | 0.00 | 87 | 1013.7 |
| 20260905115351 | 22 | 173 | 0.0 | 0.0 | 0.00 | 0.00 | 0.00 | 87 | 1013.6 |
| 20260905114851 | 22 | 173 | 0.0 | 0.0 | 0.00 | 0.00 | 0.00 | 87 | 1013.6 |
| 20260905114348 | 21 | 173 | 0.0 | 0.0 | 0.00 | 0.00 | 0.00 | 87 | 1013.6 |
| 20260905113848 | 21 | 173 | 0.0 | 0.0 | 0.00 | 0.00 | 0.00 | 87 | 1013.5 |
| 20260905113348 | 21 | 173 | 0.0 | 0.0 | 0.00 | 0.00 | 0.00 | 87 | 1013.4 |
| 20260905112848 | 21 | 173 | 0.0 | 3.2 | 0.00 | 0.00 | 0.00 | 87 | 1013.5 |
| 20260905112351 | 21 | 173 | 1.6 | 4.8 | 0.00 | 0.00 | 0.00 | 87 | 1013.4 |
| 20260905111851 | 21 | 33 | 3.2 | 4.8 | 0.00 | 0.00 | 0.00 | 87 | 1013.3 |
| 20260905111348 | 21 | 58 | 0.0 | 0.0 | 0.00 | 0.00 | 0.00 | 87 | 1013.3 |
| 20260905110851 | 21 | 58 | 0.0 | 0.0 | 0.00 | 0.00 | 0.00 | 87 | 1013.3 |
| 20260905110348 | 21 | 58 | 0.0 | 0.0 | 0.00 | 0.00 | 0.00 | 87 | 1013.2 |
| 20260905105848 | 21 | 58 | 0.0 | 0.0 | 0.00 | 0.00 | 0.00 | 87 | 1013.2 |
| 20260905105351 | 21 | 58 | 0.0 | 0.0 | 0.00 | 0.00 | 0.00 | 87 | 1013.1 |
| 20260905104851 | 21 | 58 | 0.0 | 0.0 | 0.00 | 0.00 | 0.00 | 87 | 1013.1 |
| 20260905104351 | 21 | 58 | 0.0 | 0.0 | 0.00 | 0.00 | 0.00 | 87 | 1013.3 |
| 20260905103848 | 21 | 58 | 0.0 | 0.0 | 0.00 | 0.00 | 0.00 | 87 | 1013.2 |
| 20260905103351 | 21 | 58 | 0.0 | 0.0 | 0.00 | 0.00 | 0.00 | 87 | 1013.2 |
| 20260905102848 | 21 | 58 | 0.0 | 0.0 | 0.00 | 0.00 | 0.00 | 87 | 1013.1 |
| 20260905102348 | 21 | 58 | 0.0 | 0.0 | 0.00 | 0.00 | 0.00 | 87 | 1012.9 |
| 20260905101848 | 22 | 58 | 0.0 | 0.0 | 0.00 | 0.00 | 0.00 | 87 | 1012.9 |
| 20260905101351 | 22 | 58 | 0.0 | 0.0 | 0.00 | 0.00 | 0.00 | 88 | 1013.0 |
| 20260905100848 | 22 | 58 | 0.0 | 0.0 | 0.00 | 0.00 | 0.00 | 88 | 1012.9 |
| 20260905100351 | 22 | 58 | 0.0 | 0.0 | 0.00 | 0.00 | 0.00 | 88 | 1012.8 |
| 20260905095851 | 22 | 58 | 0.0 | 0.0 | 0.00 | 0.00 | 0.00 | 88 | 1012.7 |